sensor_id;sensor_type;location;lat;lon;timestamp;temperature;humidity
12089;DHT22;6107;49.078;8.578;2024-03-29T00:01:45;7.40;99.90
12089;DHT22;6107;49.078;8.578;2024-03-29T00:04:10;7.50;99.90
12089;DHT22;6107;49.078;8.578;2024-03-29T00:06:36;7.60;99.90
12089;DHT22;6107;49.078;8.578;2024-03-29T00:09:02;7.90;99.90
12089;DHT22;6107;49.078;8.578;2024-03-29T00:11:28;7.90;99.90
12089;DHT22;6107;49.078;8.578;2024-03-29T00:13:54;8.30;99.90
12089;DHT22;6107;49.078;8.578;2024-03-29T00:16:20;8.30;99.90
12089;DHT22;6107;49.078;8.578;2024-03-29T00:18:47;8.40;99.90
12089;DHT22;6107;49.078;8.578;2024-03-29T00:21:13;8.50;99.90
12089;DHT22;6107;49.078;8.578;2024-03-29T00:23:40;8.50;99.90
12089;DHT22;6107;49.078;8.578;2024-03-29T00:26:05;8.30;99.90
12089;DHT22;6107;49.078;8.578;2024-03-29T00:28:32;8.40;99.90
12089;DHT22;6107;49.078;8.578;2024-03-29T00:30:58;8.40;99.90
12089;DHT22;6107;49.078;8.578;2024-03-29T00:33:24;8.50;99.90
12089;DHT22;6107;49.078;8.578;2024-03-29T00:35:49;8.50;99.90
12089;DHT22;6107;49.078;8.578;2024-03-29T00:38:15;8.70;99.90
12089;DHT22;6107;49.078;8.578;2024-03-29T00:40:41;8.70;99.90
12089;DHT22;6107;49.078;8.578;2024-03-29T00:43:06;8.70;99.90
12089;DHT22;6107;49.078;8.578;2024-03-29T00:45:32;8.80;99.90
12089;DHT22;6107;49.078;8.578;2024-03-29T00:47:58;8.80;99.90
12089;DHT22;6107;49.078;8.578;2024-03-29T00:50:24;8.90;99.90
12089;DHT22;6107;49.078;8.578;2024-03-29T00:52:49;8.90;99.90
12089;DHT22;6107;49.078;8.578;2024-03-29T00:55:15;8.90;99.90
12089;DHT22;6107;49.078;8.578;2024-03-29T00:57:41;9.00;99.90
12089;DHT22;6107;49.078;8.578;2024-03-29T01:00:07;9.00;99.90
12089;DHT22;6107;49.078;8.578;2024-03-29T01:02:34;9.10;99.90
12089;DHT22;6107;49.078;8.578;2024-03-29T01:04:59;9.10;99.90
12089;DHT22;6107;49.078;8.578;2024-03-29T01:07:25;9.10;99.90
12089;DHT22;6107;49.078;8.578;2024-03-29T01:09:51;9.10;99.90
12089;DHT22;6107;49.078;8.578;2024-03-29T01:12:16;9.00;99.90
12089;DHT22;6107;49.078;8.578;2024-03-29T01:14:44;9.10;99.90
12089;DHT22;6107;49.078;8.578;2024-03-29T01:17:10;9.10;99.90
12089;DHT22;6107;49.078;8.578;2024-03-29T01:19:35;9.10;99.90
12089;DHT22;6107;49.078;8.578;2024-03-29T01:22:01;9.10;99.90
12089;DHT22;6107;49.078;8.578;2024-03-29T01:24:27;9.20;99.90
12089;DHT22;6107;49.078;8.578;2024-03-29T01:26:52;9.20;99.90
12089;DHT22;6107;49.078;8.578;2024-03-29T01:29:19;9.20;99.90
12089;DHT22;6107;49.078;8.578;2024-03-29T01:31:44;9.10;99.90
12089;DHT22;6107;49.078;8.578;2024-03-29T01:34:10;9.10;99.90
12089;DHT22;6107;49.078;8.578;2024-03-29T01:36:36;9.20;99.90
12089;DHT22;6107;49.078;8.578;2024-03-29T01:39:01;9.20;99.90
12089;DHT22;6107;49.078;8.578;2024-03-29T01:41:27;9.20;99.90
12089;DHT22;6107;49.078;8.578;2024-03-29T01:43:53;9.20;99.90
12089;DHT22;6107;49.078;8.578;2024-03-29T01:46:21;9.20;99.90
12089;DHT22;6107;49.078;8.578;2024-03-29T01:48:51;9.20;99.90
12089;DHT22;6107;49.078;8.578;2024-03-29T01:51:18;9.30;99.90
12089;DHT22;6107;49.078;8.578;2024-03-29T01:53:44;9.30;99.90
12089;DHT22;6107;49.078;8.578;2024-03-29T01:56:10;9.30;99.90
12089;DHT22;6107;49.078;8.578;2024-03-29T01:58:38;9.30;99.90
12089;DHT22;6107;49.078;8.578;2024-03-29T02:01:05;9.20;99.90
12089;DHT22;6107;49.078;8.578;2024-03-29T02:03:32;9.20;99.90
12089;DHT22;6107;49.078;8.578;2024-03-29T02:05:57;9.30;99.90
12089;DHT22;6107;49.078;8.578;2024-03-29T02:08:24;9.30;99.90
12089;DHT22;6107;49.078;8.578;2024-03-29T02:10:50;9.30;99.90
12089;DHT22;6107;49.078;8.578;2024-03-29T02:13:17;9.30;99.90
12089;DHT22;6107;49.078;8.578;2024-03-29T02:15:42;9.30;99.90
12089;DHT22;6107;49.078;8.578;2024-03-29T02:18:08;9.30;99.90
12089;DHT22;6107;49.078;8.578;2024-03-29T02:20:34;9.30;99.90
12089;DHT22;6107;49.078;8.578;2024-03-29T02:23:18;9.20;99.90
12089;DHT22;6107;49.078;8.578;2024-03-29T02:25:45;9.30;99.90
12089;DHT22;6107;49.078;8.578;2024-03-29T02:28:11;9.20;99.90
12089;DHT22;6107;49.078;8.578;2024-03-29T02:30:38;9.20;99.90
12089;DHT22;6107;49.078;8.578;2024-03-29T02:33:03;9.20;99.90
12089;DHT22;6107;49.078;8.578;2024-03-29T02:35:29;9.20;99.90
12089;DHT22;6107;49.078;8.578;2024-03-29T02:37:56;9.20;99.90
12089;DHT22;6107;49.078;8.578;2024-03-29T02:40:21;9.20;99.90
12089;DHT22;6107;49.078;8.578;2024-03-29T02:42:48;9.20;99.90
12089;DHT22;6107;49.078;8.578;2024-03-29T02:45:14;9.30;99.90
12089;DHT22;6107;49.078;8.578;2024-03-29T02:47:40;9.30;99.90
12089;DHT22;6107;49.078;8.578;2024-03-29T02:50:08;9.30;99.90
12089;DHT22;6107;49.078;8.578;2024-03-29T02:52:34;9.30;99.90
12089;DHT22;6107;49.078;8.578;2024-03-29T02:55:00;9.20;99.90
12089;DHT22;6107;49.078;8.578;2024-03-29T02:57:25;9.20;99.90
12089;DHT22;6107;49.078;8.578;2024-03-29T02:59:51;9.30;99.90
12089;DHT22;6107;49.078;8.578;2024-03-29T03:02:17;9.30;99.90
12089;DHT22;6107;49.078;8.578;2024-03-29T03:04:42;9.50;99.90
12089;DHT22;6107;49.078;8.578;2024-03-29T03:07:08;9.50;99.90
12089;DHT22;6107;49.078;8.578;2024-03-29T03:09:52;9.50;99.90
12089;DHT22;6107;49.078;8.578;2024-03-29T03:12:36;9.40;99.90
12089;DHT22;6107;49.078;8.578;2024-03-29T03:15:02;9.50;99.90
12089;DHT22;6107;49.078;8.578;2024-03-29T03:17:28;9.50;99.90
12089;DHT22;6107;49.078;8.578;2024-03-29T03:19:54;9.50;99.90
12089;DHT22;6107;49.078;8.578;2024-03-29T03:22:19;9.60;99.90
12089;DHT22;6107;49.078;8.578;2024-03-29T03:24:45;9.60;99.90
12089;DHT22;6107;49.078;8.578;2024-03-29T03:27:11;9.50;99.90
12089;DHT22;6107;49.078;8.578;2024-03-29T03:29:36;9.40;99.90
12089;DHT22;6107;49.078;8.578;2024-03-29T03:32:03;9.40;99.90
12089;DHT22;6107;49.078;8.578;2024-03-29T03:34:28;9.40;99.90
12089;DHT22;6107;49.078;8.578;2024-03-29T03:36:54;9.50;99.90
12089;DHT22;6107;49.078;8.578;2024-03-29T03:39:20;9.40;99.90
12089;DHT22;6107;49.078;8.578;2024-03-29T03:41:45;9.30;99.90
12089;DHT22;6107;49.078;8.578;2024-03-29T03:44:12;9.20;99.90
12089;DHT22;6107;49.078;8.578;2024-03-29T03:46:37;9.00;99.90
12089;DHT22;6107;49.078;8.578;2024-03-29T03:49:03;8.80;99.90
12089;DHT22;6107;49.078;8.578;2024-03-29T03:51:29;8.50;99.90
12089;DHT22;6107;49.078;8.578;2024-03-29T03:53:54;8.60;99.90
12089;DHT22;6107;49.078;8.578;2024-03-29T03:56:20;8.80;99.90
12089;DHT22;6107;49.078;8.578;2024-03-29T03:58:45;8.90;99.90
12089;DHT22;6107;49.078;8.578;2024-03-29T04:01:11;8.90;99.90
12089;DHT22;6107;49.078;8.578;2024-03-29T04:03:36;8.90;99.90
12089;DHT22;6107;49.078;8.578;2024-03-29T04:06:06;9.00;99.90
12089;DHT22;6107;49.078;8.578;2024-03-29T04:08:32;9.10;99.90
12089;DHT22;6107;49.078;8.578;2024-03-29T04:11:02;9.00;99.90
12089;DHT22;6107;49.078;8.578;2024-03-29T04:13:28;9.10;99.90
12089;DHT22;6107;49.078;8.578;2024-03-29T04:16:00;9.10;99.90
12089;DHT22;6107;49.078;8.578;2024-03-29T04:18:26;9.00;99.90
12089;DHT22;6107;49.078;8.578;2024-03-29T04:20:59;9.00;99.90
12089;DHT22;6107;49.078;8.578;2024-03-29T04:23:25;9.10;99.90
12089;DHT22;6107;49.078;8.578;2024-03-29T04:25:58;9.10;99.90
12089;DHT22;6107;49.078;8.578;2024-03-29T04:28:24;9.10;99.90
12089;DHT22;6107;49.078;8.578;2024-03-29T04:31:00;9.10;99.90
12089;DHT22;6107;49.078;8.578;2024-03-29T04:33:27;9.00;99.90
12089;DHT22;6107;49.078;8.578;2024-03-29T04:35:57;9.00;99.90
12089;DHT22;6107;49.078;8.578;2024-03-29T04:38:23;9.00;99.90
12089;DHT22;6107;49.078;8.578;2024-03-29T04:40:51;9.10;99.90
12089;DHT22;6107;49.078;8.578;2024-03-29T04:43:17;9.00;99.90
12089;DHT22;6107;49.078;8.578;2024-03-29T04:45:46;8.90;99.90
12089;DHT22;6107;49.078;8.578;2024-03-29T04:48:12;8.80;99.90
12089;DHT22;6107;49.078;8.578;2024-03-29T04:50:38;8.80;99.90
12089;DHT22;6107;49.078;8.578;2024-03-29T04:53:04;8.80;99.90
12089;DHT22;6107;49.078;8.578;2024-03-29T04:55:30;8.90;99.90
12089;DHT22;6107;49.078;8.578;2024-03-29T04:57:56;8.90;99.90
12089;DHT22;6107;49.078;8.578;2024-03-29T05:00:21;8.90;99.90
12089;DHT22;6107;49.078;8.578;2024-03-29T05:02:47;9.00;99.90
12089;DHT22;6107;49.078;8.578;2024-03-29T05:05:13;9.00;99.90
12089;DHT22;6107;49.078;8.578;2024-03-29T05:07:39;9.10;99.90
12089;DHT22;6107;49.078;8.578;2024-03-29T05:10:04;9.10;99.90
12089;DHT22;6107;49.078;8.578;2024-03-29T05:12:32;9.10;99.90
12089;DHT22;6107;49.078;8.578;2024-03-29T05:14:58;9.10;99.90
12089;DHT22;6107;49.078;8.578;2024-03-29T05:17:24;9.20;99.90
12089;DHT22;6107;49.078;8.578;2024-03-29T05:19:55;9.20;99.90
12089;DHT22;6107;49.078;8.578;2024-03-29T05:22:22;9.20;99.90
12089;DHT22;6107;49.078;8.578;2024-03-29T05:24:47;9.30;99.90
12089;DHT22;6107;49.078;8.578;2024-03-29T05:27:14;9.30;99.90
12089;DHT22;6107;49.078;8.578;2024-03-29T05:29:39;9.30;99.90
12089;DHT22;6107;49.078;8.578;2024-03-29T05:32:07;9.30;99.90
12089;DHT22;6107;49.078;8.578;2024-03-29T05:34:33;9.40;99.90
12089;DHT22;6107;49.078;8.578;2024-03-29T05:36:58;9.30;99.90
12089;DHT22;6107;49.078;8.578;2024-03-29T05:39:24;9.30;99.90
12089;DHT22;6107;49.078;8.578;2024-03-29T05:41:49;9.30;99.90
12089;DHT22;6107;49.078;8.578;2024-03-29T05:44:15;9.30;99.90
12089;DHT22;6107;49.078;8.578;2024-03-29T05:46:41;9.40;99.90
12089;DHT22;6107;49.078;8.578;2024-03-29T05:49:07;9.40;99.90
12089;DHT22;6107;49.078;8.578;2024-03-29T05:51:33;9.40;99.90
12089;DHT22;6107;49.078;8.578;2024-03-29T05:54:02;9.40;99.90
12089;DHT22;6107;49.078;8.578;2024-03-29T05:56:30;9.50;99.90
12089;DHT22;6107;49.078;8.578;2024-03-29T05:58:56;9.50;99.90
12089;DHT22;6107;49.078;8.578;2024-03-29T06:01:21;9.60;99.90
12089;DHT22;6107;49.078;8.578;2024-03-29T06:03:49;9.60;99.90
12089;DHT22;6107;49.078;8.578;2024-03-29T06:06:17;9.60;99.90
12089;DHT22;6107;49.078;8.578;2024-03-29T06:08:46;9.70;99.90
12089;DHT22;6107;49.078;8.578;2024-03-29T06:11:12;9.80;99.90
12089;DHT22;6107;49.078;8.578;2024-03-29T06:13:37;9.80;99.90
12089;DHT22;6107;49.078;8.578;2024-03-29T06:16:19;9.80;99.90
12089;DHT22;6107;49.078;8.578;2024-03-29T06:19:03;9.80;99.90
12089;DHT22;6107;49.078;8.578;2024-03-29T06:21:29;9.90;99.90
12089;DHT22;6107;49.078;8.578;2024-03-29T06:23:58;10.00;99.90
12089;DHT22;6107;49.078;8.578;2024-03-29T06:26:23;10.00;99.90
12089;DHT22;6107;49.078;8.578;2024-03-29T06:28:49;10.00;99.90
12089;DHT22;6107;49.078;8.578;2024-03-29T06:31:15;10.10;99.90
12089;DHT22;6107;49.078;8.578;2024-03-29T06:33:41;10.10;99.90
12089;DHT22;6107;49.078;8.578;2024-03-29T06:36:06;10.10;99.90
12089;DHT22;6107;49.078;8.578;2024-03-29T06:38:32;10.10;99.90
12089;DHT22;6107;49.078;8.578;2024-03-29T06:40:58;10.20;99.90
12089;DHT22;6107;49.078;8.578;2024-03-29T06:43:23;10.20;99.90
12089;DHT22;6107;49.078;8.578;2024-03-29T06:45:49;10.30;99.90
12089;DHT22;6107;49.078;8.578;2024-03-29T06:48:14;10.30;99.90
12089;DHT22;6107;49.078;8.578;2024-03-29T06:50:41;10.30;99.90
12089;DHT22;6107;49.078;8.578;2024-03-29T06:53:06;10.30;99.90
12089;DHT22;6107;49.078;8.578;2024-03-29T06:55:34;10.30;99.90
12089;DHT22;6107;49.078;8.578;2024-03-29T06:58:02;10.50;99.90
12089;DHT22;6107;49.078;8.578;2024-03-29T07:00:28;10.40;99.90
12089;DHT22;6107;49.078;8.578;2024-03-29T07:02:53;10.50;99.90
12089;DHT22;6107;49.078;8.578;2024-03-29T07:05:19;10.50;99.90
12089;DHT22;6107;49.078;8.578;2024-03-29T07:07:45;10.50;99.90
12089;DHT22;6107;49.078;8.578;2024-03-29T07:10:12;10.50;99.90
12089;DHT22;6107;49.078;8.578;2024-03-29T07:12:38;10.60;99.90
12089;DHT22;6107;49.078;8.578;2024-03-29T07:15:04;10.70;99.90
12089;DHT22;6107;49.078;8.578;2024-03-29T07:17:30;10.60;99.90
12089;DHT22;6107;49.078;8.578;2024-03-29T07:19:56;10.70;99.90
12089;DHT22;6107;49.078;8.578;2024-03-29T07:22:21;10.70;99.90
12089;DHT22;6107;49.078;8.578;2024-03-29T07:24:47;10.60;99.90
12089;DHT22;6107;49.078;8.578;2024-03-29T07:27:13;10.50;99.90
12089;DHT22;6107;49.078;8.578;2024-03-29T07:29:42;10.50;99.90
12089;DHT22;6107;49.078;8.578;2024-03-29T07:32:09;10.50;99.90
12089;DHT22;6107;49.078;8.578;2024-03-29T07:34:35;10.50;99.90
12089;DHT22;6107;49.078;8.578;2024-03-29T07:37:01;10.50;99.90
12089;DHT22;6107;49.078;8.578;2024-03-29T07:39:26;10.40;99.90
12089;DHT22;6107;49.078;8.578;2024-03-29T07:41:52;10.30;99.90
12089;DHT22;6107;49.078;8.578;2024-03-29T07:44:17;10.10;99.90
12089;DHT22;6107;49.078;8.578;2024-03-29T07:46:43;10.10;99.90
12089;DHT22;6107;49.078;8.578;2024-03-29T07:49:11;10.10;99.90
12089;DHT22;6107;49.078;8.578;2024-03-29T07:51:37;10.10;99.90
12089;DHT22;6107;49.078;8.578;2024-03-29T07:54:02;10.10;99.90
12089;DHT22;6107;49.078;8.578;2024-03-29T07:56:28;10.10;99.90
12089;DHT22;6107;49.078;8.578;2024-03-29T07:58:54;9.90;99.90
12089;DHT22;6107;49.078;8.578;2024-03-29T08:01:23;9.90;99.90
12089;DHT22;6107;49.078;8.578;2024-03-29T08:03:53;9.80;99.90
12089;DHT22;6107;49.078;8.578;2024-03-29T08:06:21;9.80;99.90
12089;DHT22;6107;49.078;8.578;2024-03-29T08:08:51;9.70;99.90
12089;DHT22;6107;49.078;8.578;2024-03-29T08:11:17;9.60;99.90
12089;DHT22;6107;49.078;8.578;2024-03-29T08:13:43;9.60;99.90
12089;DHT22;6107;49.078;8.578;2024-03-29T08:16:08;9.50;99.90
12089;DHT22;6107;49.078;8.578;2024-03-29T08:18:34;9.60;99.90
12089;DHT22;6107;49.078;8.578;2024-03-29T08:21:00;9.70;99.90
12089;DHT22;6107;49.078;8.578;2024-03-29T08:23:26;9.80;99.90
12089;DHT22;6107;49.078;8.578;2024-03-29T08:25:52;9.70;99.90
12089;DHT22;6107;49.078;8.578;2024-03-29T08:28:18;9.70;99.90
12089;DHT22;6107;49.078;8.578;2024-03-29T08:30:44;9.60;99.90
12089;DHT22;6107;49.078;8.578;2024-03-29T08:33:10;9.60;99.90
12089;DHT22;6107;49.078;8.578;2024-03-29T08:35:35;9.70;99.90
12089;DHT22;6107;49.078;8.578;2024-03-29T08:38:01;9.80;99.90
12089;DHT22;6107;49.078;8.578;2024-03-29T08:40:28;9.80;99.90
12089;DHT22;6107;49.078;8.578;2024-03-29T08:42:56;9.70;99.90
12089;DHT22;6107;49.078;8.578;2024-03-29T08:45:22;9.70;99.90
12089;DHT22;6107;49.078;8.578;2024-03-29T08:47:48;9.80;99.90
12089;DHT22;6107;49.078;8.578;2024-03-29T08:50:14;9.90;99.90
12089;DHT22;6107;49.078;8.578;2024-03-29T08:52:40;9.90;99.90
12089;DHT22;6107;49.078;8.578;2024-03-29T08:55:06;9.90;99.90
12089;DHT22;6107;49.078;8.578;2024-03-29T08:57:32;9.90;99.90
12089;DHT22;6107;49.078;8.578;2024-03-29T08:59:58;10.00;99.90
12089;DHT22;6107;49.078;8.578;2024-03-29T09:02:24;10.10;99.90
12089;DHT22;6107;49.078;8.578;2024-03-29T09:04:49;10.10;99.90
12089;DHT22;6107;49.078;8.578;2024-03-29T09:07:15;10.30;99.90
12089;DHT22;6107;49.078;8.578;2024-03-29T09:09:41;10.40;99.90
12089;DHT22;6107;49.078;8.578;2024-03-29T09:12:10;10.30;99.90
12089;DHT22;6107;49.078;8.578;2024-03-29T09:14:35;10.40;99.90
12089;DHT22;6107;49.078;8.578;2024-03-29T09:17:01;10.60;99.90
12089;DHT22;6107;49.078;8.578;2024-03-29T09:19:28;10.80;99.90
12089;DHT22;6107;49.078;8.578;2024-03-29T09:21:55;10.90;99.90
12089;DHT22;6107;49.078;8.578;2024-03-29T09:24:21;10.90;99.90
12089;DHT22;6107;49.078;8.578;2024-03-29T09:26:49;11.00;99.90
12089;DHT22;6107;49.078;8.578;2024-03-29T09:29:14;11.10;99.90
12089;DHT22;6107;49.078;8.578;2024-03-29T09:31:41;11.10;99.90
12089;DHT22;6107;49.078;8.578;2024-03-29T09:34:07;11.20;99.90
12089;DHT22;6107;49.078;8.578;2024-03-29T09:36:32;11.20;99.90
12089;DHT22;6107;49.078;8.578;2024-03-29T09:38:58;11.30;99.90
12089;DHT22;6107;49.078;8.578;2024-03-29T09:41:25;11.40;99.90
12089;DHT22;6107;49.078;8.578;2024-03-29T09:43:54;11.50;99.90
12089;DHT22;6107;49.078;8.578;2024-03-29T09:46:23;11.70;99.90
12089;DHT22;6107;49.078;8.578;2024-03-29T09:48:49;11.80;99.90
12089;DHT22;6107;49.078;8.578;2024-03-29T09:51:15;12.00;99.90
12089;DHT22;6107;49.078;8.578;2024-03-29T09:53:43;12.00;99.90
12089;DHT22;6107;49.078;8.578;2024-03-29T09:56:09;12.00;99.90
12089;DHT22;6107;49.078;8.578;2024-03-29T09:58:36;12.00;99.90
12089;DHT22;6107;49.078;8.578;2024-03-29T10:01:04;12.00;99.90
12089;DHT22;6107;49.078;8.578;2024-03-29T10:03:31;12.00;99.90
12089;DHT22;6107;49.078;8.578;2024-03-29T10:05:58;12.10;99.90
12089;DHT22;6107;49.078;8.578;2024-03-29T10:08:26;12.20;99.90
12089;DHT22;6107;49.078;8.578;2024-03-29T10:10:56;12.30;99.90
12089;DHT22;6107;49.078;8.578;2024-03-29T10:13:21;12.30;99.90
12089;DHT22;6107;49.078;8.578;2024-03-29T10:15:52;12.50;99.90
12089;DHT22;6107;49.078;8.578;2024-03-29T10:18:19;12.60;99.90
12089;DHT22;6107;49.078;8.578;2024-03-29T10:21:04;12.80;99.90
12089;DHT22;6107;49.078;8.578;2024-03-29T10:23:31;12.80;99.90
12089;DHT22;6107;49.078;8.578;2024-03-29T10:25:57;12.80;99.90
12089;DHT22;6107;49.078;8.578;2024-03-29T10:28:27;12.80;99.90
12089;DHT22;6107;49.078;8.578;2024-03-29T10:30:55;12.90;99.90
12089;DHT22;6107;49.078;8.578;2024-03-29T10:33:21;12.80;99.90
12089;DHT22;6107;49.078;8.578;2024-03-29T10:35:46;13.10;99.90
12089;DHT22;6107;49.078;8.578;2024-03-29T10:38:12;13.20;99.90
12089;DHT22;6107;49.078;8.578;2024-03-29T10:50:37;13.30;99.90
12089;DHT22;6107;49.078;8.578;2024-03-29T10:53:05;13.50;99.90
12089;DHT22;6107;49.078;8.578;2024-03-29T10:55:33;13.70;99.90
12089;DHT22;6107;49.078;8.578;2024-03-29T10:58:00;13.90;99.90
12089;DHT22;6107;49.078;8.578;2024-03-29T11:00:28;14.30;99.90
12089;DHT22;6107;49.078;8.578;2024-03-29T11:12:54;15.60;99.90
12089;DHT22;6107;49.078;8.578;2024-03-29T11:15:31;15.70;99.90
12089;DHT22;6107;49.078;8.578;2024-03-29T11:18:00;15.70;99.90
12089;DHT22;6107;49.078;8.578;2024-03-29T11:20:27;15.50;99.90
12089;DHT22;6107;49.078;8.578;2024-03-29T11:23:22;15.50;99.90
12089;DHT22;6107;49.078;8.578;2024-03-29T11:25:52;15.30;99.90
12089;DHT22;6107;49.078;8.578;2024-03-29T11:46:02;15.10;99.90
12089;DHT22;6107;49.078;8.578;2024-03-29T11:48:29;15.10;99.90
12089;DHT22;6107;49.078;8.578;2024-03-29T11:50:56;14.80;99.90
12089;DHT22;6107;49.078;8.578;2024-03-29T11:53:23;14.90;99.90
12089;DHT22;6107;49.078;8.578;2024-03-29T11:55:48;14.80;99.90
12089;DHT22;6107;49.078;8.578;2024-03-29T11:58:21;14.90;99.90
12089;DHT22;6107;49.078;8.578;2024-03-29T12:00:47;14.90;99.90
12089;DHT22;6107;49.078;8.578;2024-03-29T12:03:15;14.90;99.90
12089;DHT22;6107;49.078;8.578;2024-03-29T12:05:42;14.80;99.90
12089;DHT22;6107;49.078;8.578;2024-03-29T12:08:09;14.80;99.90
12089;DHT22;6107;49.078;8.578;2024-03-29T12:10:35;14.90;99.90
12089;DHT22;6107;49.078;8.578;2024-03-29T12:13:07;14.70;99.90
12089;DHT22;6107;49.078;8.578;2024-03-29T12:15:33;14.70;99.90
12089;DHT22;6107;49.078;8.578;2024-03-29T12:18:01;14.90;99.90
12089;DHT22;6107;49.078;8.578;2024-03-29T12:20:38;15.10;99.90
12089;DHT22;6107;49.078;8.578;2024-03-29T12:23:05;15.00;99.90
12089;DHT22;6107;49.078;8.578;2024-03-29T12:25:33;15.00;99.90
12089;DHT22;6107;49.078;8.578;2024-03-29T12:27:59;15.00;99.90
12089;DHT22;6107;49.078;8.578;2024-03-29T12:30:26;14.90;99.90
12089;DHT22;6107;49.078;8.578;2024-03-29T12:33:06;14.80;99.90
12089;DHT22;6107;49.078;8.578;2024-03-29T12:35:32;14.80;99.90
12089;DHT22;6107;49.078;8.578;2024-03-29T12:38:00;14.80;99.90
12089;DHT22;6107;49.078;8.578;2024-03-29T12:40:27;14.60;99.90
12089;DHT22;6107;49.078;8.578;2024-03-29T12:42:55;14.30;99.90
12089;DHT22;6107;49.078;8.578;2024-03-29T12:45:22;14.20;99.90
12089;DHT22;6107;49.078;8.578;2024-03-29T12:47:48;14.30;99.90
12089;DHT22;6107;49.078;8.578;2024-03-29T12:50:27;14.20;99.90
12089;DHT22;6107;49.078;8.578;2024-03-29T12:52:54;14.20;99.90
12089;DHT22;6107;49.078;8.578;2024-03-29T12:55:21;14.10;99.90
12089;DHT22;6107;49.078;8.578;2024-03-29T12:57:48;14.00;99.90
12089;DHT22;6107;49.078;8.578;2024-03-29T13:00:14;13.70;99.90
12089;DHT22;6107;49.078;8.578;2024-03-29T13:02:40;14.00;99.90
12089;DHT22;6107;49.078;8.578;2024-03-29T13:05:06;14.00;99.90
12089;DHT22;6107;49.078;8.578;2024-03-29T13:07:32;13.80;99.90
12089;DHT22;6107;49.078;8.578;2024-03-29T13:09:59;13.80;99.90
12089;DHT22;6107;49.078;8.578;2024-03-29T13:12:31;13.80;99.90
12089;DHT22;6107;49.078;8.578;2024-03-29T13:15:01;13.80;99.90
12089;DHT22;6107;49.078;8.578;2024-03-29T13:17:27;13.60;99.90
12089;DHT22;6107;49.078;8.578;2024-03-29T13:19:53;13.40;99.90
12089;DHT22;6107;49.078;8.578;2024-03-29T13:22:19;13.40;99.90
12089;DHT22;6107;49.078;8.578;2024-03-29T13:24:44;13.50;99.90
12089;DHT22;6107;49.078;8.578;2024-03-29T13:27:10;13.30;99.90
12089;DHT22;6107;49.078;8.578;2024-03-29T13:29:35;13.40;99.90
12089;DHT22;6107;49.078;8.578;2024-03-29T13:32:01;13.50;99.90
12089;DHT22;6107;49.078;8.578;2024-03-29T13:34:27;13.30;99.90
12089;DHT22;6107;49.078;8.578;2024-03-29T13:36:53;13.40;99.90
12089;DHT22;6107;49.078;8.578;2024-03-29T13:39:18;13.80;99.90
12089;DHT22;6107;49.078;8.578;2024-03-29T13:41:44;13.80;99.90
12089;DHT22;6107;49.078;8.578;2024-03-29T13:44:10;14.00;99.90
12089;DHT22;6107;49.078;8.578;2024-03-29T13:46:36;14.20;99.90
12089;DHT22;6107;49.078;8.578;2024-03-29T13:49:02;14.20;99.90
12089;DHT22;6107;49.078;8.578;2024-03-29T13:51:30;14.20;99.90
12089;DHT22;6107;49.078;8.578;2024-03-29T13:53:56;14.00;99.90
12089;DHT22;6107;49.078;8.578;2024-03-29T13:56:22;14.00;99.90
12089;DHT22;6107;49.078;8.578;2024-03-29T13:58:48;14.10;99.90
12089;DHT22;6107;49.078;8.578;2024-03-29T14:01:13;14.10;99.90
12089;DHT22;6107;49.078;8.578;2024-03-29T14:03:39;14.00;99.90
12089;DHT22;6107;49.078;8.578;2024-03-29T14:06:05;14.00;99.90
12089;DHT22;6107;49.078;8.578;2024-03-29T14:08:31;13.80;99.90
12089;DHT22;6107;49.078;8.578;2024-03-29T14:11:01;13.80;99.90
12089;DHT22;6107;49.078;8.578;2024-03-29T14:13:26;13.90;99.90
12089;DHT22;6107;49.078;8.578;2024-03-29T14:15:52;14.10;99.90
12089;DHT22;6107;49.078;8.578;2024-03-29T14:18:18;14.40;99.90
12089;DHT22;6107;49.078;8.578;2024-03-29T14:20:44;14.30;99.90
12089;DHT22;6107;49.078;8.578;2024-03-29T14:23:09;14.20;99.90
12089;DHT22;6107;49.078;8.578;2024-03-29T14:25:38;14.00;99.90
12089;DHT22;6107;49.078;8.578;2024-03-29T14:28:04;14.10;99.90
12089;DHT22;6107;49.078;8.578;2024-03-29T14:30:30;14.50;99.90
12089;DHT22;6107;49.078;8.578;2024-03-29T14:32:56;14.60;99.90
12089;DHT22;6107;49.078;8.578;2024-03-29T14:35:22;15.20;99.90
12089;DHT22;6107;49.078;8.578;2024-03-29T14:37:49;14.80;99.90
12089;DHT22;6107;49.078;8.578;2024-03-29T14:40:15;14.70;99.90
12089;DHT22;6107;49.078;8.578;2024-03-29T14:42:41;14.40;99.90
12089;DHT22;6107;49.078;8.578;2024-03-29T14:45:08;14.30;99.90
12089;DHT22;6107;49.078;8.578;2024-03-29T14:47:37;14.20;99.90
12089;DHT22;6107;49.078;8.578;2024-03-29T14:50:03;14.30;99.90
12089;DHT22;6107;49.078;8.578;2024-03-29T14:52:30;14.30;99.90
12089;DHT22;6107;49.078;8.578;2024-03-29T14:54:56;14.10;99.90
12089;DHT22;6107;49.078;8.578;2024-03-29T14:57:22;14.10;99.90
12089;DHT22;6107;49.078;8.578;2024-03-29T14:59:50;14.20;99.90
12089;DHT22;6107;49.078;8.578;2024-03-29T15:02:16;14.20;99.90
12089;DHT22;6107;49.078;8.578;2024-03-29T15:04:42;14.20;99.90
12089;DHT22;6107;49.078;8.578;2024-03-29T15:07:08;14.10;99.90
12089;DHT22;6107;49.078;8.578;2024-03-29T15:09:33;14.00;99.90
12089;DHT22;6107;49.078;8.578;2024-03-29T15:12:01;14.20;99.90
12089;DHT22;6107;49.078;8.578;2024-03-29T15:14:29;14.40;99.90
12089;DHT22;6107;49.078;8.578;2024-03-29T15:16:54;14.80;99.90
12089;DHT22;6107;49.078;8.578;2024-03-29T15:19:21;15.00;99.90
12089;DHT22;6107;49.078;8.578;2024-03-29T15:21:46;14.90;99.90
12089;DHT22;6107;49.078;8.578;2024-03-29T15:24:13;14.60;99.90
12089;DHT22;6107;49.078;8.578;2024-03-29T15:26:38;14.60;99.90
12089;DHT22;6107;49.078;8.578;2024-03-29T15:29:05;14.70;99.90
12089;DHT22;6107;49.078;8.578;2024-03-29T15:31:39;14.50;99.90
12089;DHT22;6107;49.078;8.578;2024-03-29T15:34:07;14.70;99.90
12089;DHT22;6107;49.078;8.578;2024-03-29T15:36:34;14.70;99.90
12089;DHT22;6107;49.078;8.578;2024-03-29T15:39:00;14.80;99.90
12089;DHT22;6107;49.078;8.578;2024-03-29T15:41:32;14.80;99.90
12089;DHT22;6107;49.078;8.578;2024-03-29T15:43:58;14.70;99.90
12089;DHT22;6107;49.078;8.578;2024-03-29T15:46:24;14.90;99.90
12089;DHT22;6107;49.078;8.578;2024-03-29T15:48:50;14.80;99.90
12089;DHT22;6107;49.078;8.578;2024-03-29T15:51:16;14.80;99.90
12089;DHT22;6107;49.078;8.578;2024-03-29T15:53:42;14.90;99.90
12089;DHT22;6107;49.078;8.578;2024-03-29T15:56:08;14.80;99.90
12089;DHT22;6107;49.078;8.578;2024-03-29T15:58:34;14.70;99.90
12089;DHT22;6107;49.078;8.578;2024-03-29T16:00:59;14.70;99.90
12089;DHT22;6107;49.078;8.578;2024-03-29T16:03:25;14.60;99.90
12089;DHT22;6107;49.078;8.578;2024-03-29T16:05:51;14.60;99.90
12089;DHT22;6107;49.078;8.578;2024-03-29T16:08:17;14.40;99.90
12089;DHT22;6107;49.078;8.578;2024-03-29T16:10:58;14.50;99.90
12089;DHT22;6107;49.078;8.578;2024-03-29T16:13:25;14.60;99.90
12089;DHT22;6107;49.078;8.578;2024-03-29T16:15:53;14.60;99.90
12089;DHT22;6107;49.078;8.578;2024-03-29T16:18:19;14.40;99.90
12089;DHT22;6107;49.078;8.578;2024-03-29T16:20:45;14.30;99.90
12089;DHT22;6107;49.078;8.578;2024-03-29T16:23:12;14.50;99.90
12089;DHT22;6107;49.078;8.578;2024-03-29T16:25:38;14.60;99.90
12089;DHT22;6107;49.078;8.578;2024-03-29T16:28:06;14.40;99.90